Aérodrome :
LOGIN :

S'inscrire | Disclaimer

   EN    FR    IT 

 










Légende :    VFR   VFR Marginal   IFR   IFR Intensif   IFR Très Intensif
Visi : 
Plafond : 
>= 8 km
>= 3000ft
5 à 8 km
1000 à 3000 ft
1500m à 5 km
500 à 1000 ft
800 à 1500m
200 à 500 ft
< 800m
< 200 ft
Symboles :   Orages  Brouillard  Fortes neiges  Fortes précipitations  Vent > 20 kt
SIGMETs :   Divers  Orages  Givrage  Turbulence  Onde Orograph.  Cendres Volcan.






- Altitude de l'aérodrome : 648 ft
- Code IATA : INI


LYNI - Nis Constantine

DERNIER METAR :
  • 240800Z 19004KT 120V250 9999 FEW023 16/10 Q1007 NOSIG

METARs EXPIRÉS :
  • 240730Z VRB03KT 9999 FEW0023 15/11 Q1006 NOSIG
  • 240700Z VRB02KT 9999 FEW017 14/11 Q1007 NOSIG
  • 240630Z 18003KT 120V230 9999 FEW010 12/10 Q1007 NOSIG
  • 240600Z 18003KT 120V230 9999 FEW009 11/10 Q1007 NOSIG
  • 240530Z 15003KT 100V180 9999 FEW006 10/10 Q1007 NOSIG
  • 240500Z 10003KT 9999 3000E FEW004 09/09 Q1007 NOSIG
  • 240430Z 07004KT 020V110 0400 0200SE R29/0225N R11/P2000N FG SCT001 07/07 Q1007 NOSIG
  • 240400Z 13002KT 0300 R29/0250D R11/0450D FG NSC 07/07 Q1007 NOSIG
  • 240330Z VRB02KT 0500 0400SE R29/0400N R11/0750U FG FEW001 07/07 Q1007 NOSIG

TAF TAF LYNI
Valide du 24 à 06h jusqu'au 25 à 06h UTC


240500Z 2406/2506 VRB02KT 9999 SCT027 TX21/2414Z TN06/2502Z
TEMPO 2406/2408 3000 BR
BECMG 2407/2409 21010KT
BECMG 2418/2420 32006KT
BECMG 2502/2504 5000 RA BKN015 BKN030



MET'MAP, la Météo Aéronautique d'un coup d'oeil ! - Copyright ORBIFLY Décembre 2007 - Disclaimer

ORBIFLY MET'MAP TEAM :

Programmation & Développement : Alexandra Zaïnal
Sur une idée originale de : Baudouin d'Aumeries
Soutien technique & logistique : Manuel Goepfert
Assistance : Marc-Olivier Méhu




SOURCES & CREDITS :

   NOAA